Time;durP1;ratioP1;P1;durP2;ratioP2;P2;SDS_P1;SDS_P2;PMS_P1;PMS_P2;Temp;Humidity;BMP_temperature;BMP_pressure;BME280_temperature;BME280_humidity;BME280_pressure;Samples;Min_cycle;Max_cycle;Signal;HPM_P1;HPM_P2
2021/04/14 00:01:35;;;;;;;2.53;1.60;;;4.70;99.90;;;;;;5088008;28;20210;-74
2021/04/14 00:04:01;;;;;;;3.77;1.33;;;4.60;99.90;;;;;;5087878;28;20214;-74
2021/04/14 00:06:27;;;;;;;3.93;1.70;;;4.50;99.90;;;;;;5088292;28;20238;-74
2021/04/14 00:08:53;;;;;;;4.93;1.30;;;4.30;99.90;;;;;;5088225;28;20211;-74
2021/04/14 00:11:20;;;;;;;3.37;1.17;;;4.30;99.90;;;;;;5087950;28;20243;-74
2021/04/14 00:13:48;;;;;;;5.20;1.73;;;4.20;99.90;;;;;;5087707;28;20660;-73
2021/04/14 00:16:16;;;;;;;4.13;1.27;;;4.10;99.90;;;;;;5091219;28;20245;-73
2021/04/14 00:18:43;;;;;;;2.20;0.80;;;4.10;99.90;;;;;;5091677;28;20269;-73
2021/04/14 00:21:10;;;;;;;3.60;1.60;;;4.20;99.90;;;;;;5092280;28;20429;-76
2021/04/14 00:23:37;;;;;;;2.53;1.47;;;4.30;99.90;;;;;;5091309;28;20970;-75
2021/04/14 00:26:03;;;;;;;3.40;1.40;;;4.20;99.90;;;;;;5091642;28;20213;-75
2021/04/14 00:28:29;;;;;;;5.53;1.30;;;4.30;99.90;;;;;;5091805;28;20230;-74
2021/04/14 00:30:56;;;;;;;4.20;1.33;;;4.20;99.90;;;;;;5091746;28;20207;-75
2021/04/14 00:33:23;;;;;;;2.67;1.50;;;4.20;99.90;;;;;;5091704;28;20268;-75
2021/04/14 00:35:49;;;;;;;4.87;1.30;;;4.30;99.90;;;;;;5091409;28;20248;-75
2021/04/14 00:38:17;;;;;;;2.70;1.10;;;4.20;99.90;;;;;;5091398;28;20226;-75
2021/04/14 00:40:45;;;;;;;3.03;1.37;;;4.20;99.90;;;;;;5091617;28;20198;-73
2021/04/14 00:43:13;;;;;;;3.67;1.03;;;4.10;99.90;;;;;;5091399;28;20230;-74
2021/04/14 00:45:39;;;;;;;5.93;1.97;;;4.10;99.90;;;;;;5091470;28;20207;-74
2021/04/14 00:48:08;;;;;;;3.83;1.30;;;4.00;99.90;;;;;;5091678;28;20218;-75
2021/04/14 00:50:34;;;;;;;4.43;1.47;;;3.80;99.90;;;;;;5091609;28;20619;-76
2021/04/14 00:53:00;;;;;;;4.37;1.30;;;3.70;99.90;;;;;;5091370;28;20199;-76
2021/04/14 00:55:28;;;;;;;2.50;1.40;;;3.60;99.90;;;;;;5091828;28;20203;-76
2021/04/14 00:57:55;;;;;;;5.00;1.50;;;3.70;99.90;;;;;;5091403;28;20207;-76
2021/04/14 01:00:29;;;;;;;5.47;1.17;;;3.70;99.90;;;;;;5091175;28;20252;-73
2021/04/14 01:02:55;;;;;;;3.97;1.20;;;3.80;99.90;;;;;;5091345;28;20563;-75
2021/04/14 01:05:23;;;;;;;5.30;1.80;;;3.70;99.90;;;;;;5090925;28;20203;-75
2021/04/14 01:07:50;;;;;;;2.97;1.20;;;3.70;99.90;;;;;;5091294;28;20202;-75
2021/04/14 01:10:18;;;;;;;3.00;1.20;;;3.70;99.90;;;;;;5090952;28;20215;-75
2021/04/14 01:12:44;;;;;;;4.20;1.53;;;3.80;99.90;;;;;;5091062;28;20205;-75
2021/04/14 01:15:14;;;;;;;3.47;1.60;;;3.80;99.90;;;;;;5075967;28;20252;-73
2021/04/14 01:17:40;;;;;;;6.83;1.53;;;3.70;99.90;;;;;;5070492;28;20199;-74
2021/04/14 01:20:08;;;;;;;4.93;1.57;;;3.60;99.90;;;;;;5069751;28;20673;-73
2021/04/14 01:22:35;;;;;;;6.90;1.97;;;3.50;99.90;;;;;;5070196;28;20238;-73
2021/04/14 01:25:01;;;;;;;7.90;1.77;;;3.50;99.90;;;;;;5069583;28;20610;-73
2021/04/14 01:27:27;;;;;;;5.77;1.97;;;3.50;99.90;;;;;;5070474;28;20226;-73
2021/04/14 01:29:53;;;;;;;3.67;1.60;;;3.40;99.90;;;;;;5070086;28;20241;-73
2021/04/14 01:32:19;;;;;;;4.80;1.20;;;3.40;99.90;;;;;;5069664;28;20697;-73
2021/04/14 01:34:46;;;;;;;4.67;1.57;;;3.40;99.90;;;;;;5070062;28;20216;-73
2021/04/14 01:37:12;;;;;;;3.50;1.70;;;3.30;99.90;;;;;;5070075;28;20657;-73
2021/04/14 01:39:39;;;;;;;5.63;1.40;;;3.30;99.90;;;;;;5070066;28;20262;-73
2021/04/14 01:42:05;;;;;;;4.10;1.70;;;3.30;99.90;;;;;;5069983;28;20226;-73
2021/04/14 01:44:31;;;;;;;6.20;1.50;;;3.20;99.90;;;;;;5070249;28;20242;-73
2021/04/14 01:46:58;;;;;;;4.50;1.63;;;3.20;99.90;;;;;;5070017;28;20207;-73
2021/04/14 01:49:24;;;;;;;6.40;1.67;;;3.10;99.90;;;;;;5069676;28;20568;-73
2021/04/14 01:51:50;;;;;;;4.03;1.70;;;3.10;99.90;;;;;;5069799;28;20231;-74
2021/04/14 01:54:16;;;;;;;4.77;1.70;;;3.20;99.90;;;;;;5069974;28;20571;-74
2021/04/14 01:56:43;;;;;;;4.63;1.50;;;3.20;99.90;;;;;;5069885;28;20230;-74
2021/04/14 01:59:10;;;;;;;6.23;1.70;;;3.10;99.90;;;;;;5069514;28;20314;-74
2021/04/14 02:01:36;;;;;;;8.03;2.07;;;3.30;99.90;;;;;;5069760;28;20211;-75
2021/04/14 02:04:03;;;;;;;6.33;1.47;;;3.20;99.90;;;;;;5069586;28;20998;-74
2021/04/14 02:06:29;;;;;;;5.60;1.60;;;3.10;99.90;;;;;;5069631;28;20199;-74
2021/04/14 02:08:55;;;;;;;5.33;1.67;;;3.10;99.90;;;;;;5069537;28;20219;-74
2021/04/14 02:11:22;;;;;;;6.03;1.40;;;3.10;99.90;;;;;;5069263;28;20231;-74
2021/04/14 02:13:49;;;;;;;5.10;1.83;;;3.00;99.90;;;;;;5069264;28;20234;-75
2021/04/14 02:16:20;;;;;;;7.07;1.87;;;3.00;99.90;;;;;;5069036;28;20239;-74
2021/04/14 02:18:46;;;;;;;5.33;1.83;;;3.00;99.90;;;;;;5069158;28;20234;-74
2021/04/14 02:21:12;;;;;;;6.97;2.23;;;3.00;99.90;;;;;;5068801;28;20662;-74
2021/04/14 02:23:41;;;;;;;5.00;1.50;;;3.00;99.90;;;;;;5069190;28;20211;-74
2021/04/14 02:26:09;;;;;;;7.87;1.70;;;3.00;99.90;;;;;;5068814;28;20661;-74
2021/04/14 02:28:35;;;;;;;3.93;1.53;;;2.90;99.90;;;;;;5069196;28;20215;-75
2021/04/14 02:31:03;;;;;;;6.00;1.60;;;2.90;99.90;;;;;;5069460;28;20203;-74
2021/04/14 02:33:32;;;;;;;5.77;2.00;;;3.10;99.90;;;;;;5069092;28;20204;-75
2021/04/14 02:35:58;;;;;;;5.77;1.60;;;3.00;99.90;;;;;;5069049;28;20214;-74
2021/04/14 02:38:25;;;;;;;6.70;2.23;;;3.00;99.90;;;;;;5068056;28;20256;-72
2021/04/14 02:40:52;;;;;;;4.60;1.90;;;2.90;99.90;;;;;;5068673;28;20683;-72
2021/04/14 02:43:18;;;;;;;3.67;1.87;;;3.00;99.90;;;;;;5068673;28;20219;-73
2021/04/14 02:45:45;;;;;;;9.30;2.50;;;2.90;99.90;;;;;;5068850;28;20222;-73
2021/04/14 02:48:11;;;;;;;5.90;2.50;;;2.90;99.90;;;;;;5068560;28;20241;-73
2021/04/14 02:50:38;;;;;;;5.27;1.77;;;2.90;99.90;;;;;;5068677;28;20222;-73
2021/04/14 02:53:06;;;;;;;6.83;1.97;;;3.00;99.90;;;;;;5068623;28;20204;-73
2021/04/14 02:55:32;;;;;;;7.30;2.90;;;3.00;99.90;;;;;;5068808;28;20203;-73
2021/04/14 02:57:58;;;;;;;9.33;2.60;;;3.00;99.90;;;;;;5068838;28;20203;-73
2021/04/14 03:00:26;;;;;;;5.10;1.70;;;3.30;99.90;;;;;;5068392;28;20235;-72
2021/04/14 03:02:53;;;;;;;4.90;1.40;;;3.30;99.90;;;;;;5068860;28;20207;-72
2021/04/14 03:05:24;;;;;;;3.87;2.10;;;3.40;99.90;;;;;;5072568;28;20203;-74
2021/04/14 03:07:50;;;;;;;5.47;1.60;;;3.50;99.90;;;;;;5079568;28;20324;-72
2021/04/14 03:10:17;;;;;;;6.87;1.60;;;3.30;99.90;;;;;;5074776;28;20211;-74
2021/04/14 03:12:43;;;;;;;4.37;1.50;;;3.40;99.90;;;;;;5085480;28;20207;-74
2021/04/14 03:15:12;;;;;;;5.83;1.90;;;3.40;99.90;;;;;;5063965;28;20732;-74
2021/04/14 03:17:38;;;;;;;3.67;2.00;;;3.50;99.90;;;;;;5064661;28;20206;-74
2021/04/14 03:20:06;;;;;;;3.83;1.83;;;3.30;99.90;;;;;;5064203;28;20265;-74
2021/04/14 03:22:34;;;;;;;6.50;1.93;;;3.20;99.90;;;;;;5064604;28;20218;-74
2021/04/14 03:25:00;;;;;;;4.27;1.83;;;3.20;99.90;;;;;;5064176;28;20768;-74
2021/04/14 03:27:26;;;;;;;3.67;1.63;;;3.30;99.90;;;;;;5064539;28;20251;-76
2021/04/14 03:29:53;;;;;;;5.57;2.27;;;3.30;99.90;;;;;;5064684;28;20212;-76
2021/04/14 03:32:19;;;;;;;6.67;3.27;;;3.20;99.90;;;;;;5064234;28;20207;-73
2021/04/14 03:34:45;;;;;;;6.33;2.30;;;3.20;99.90;;;;;;5064184;28;20218;-73
2021/04/14 03:37:11;;;;;;;11.07;2.00;;;3.00;99.90;;;;;;5064209;28;20239;-73
2021/04/14 03:39:38;;;;;;;6.13;1.93;;;2.90;99.90;;;;;;5064196;28;20227;-73
2021/04/14 03:42:05;;;;;;;6.20;2.53;;;2.80;99.90;;;;;;5064293;28;20299;-73
2021/04/14 03:44:34;;;;;;;3.87;1.80;;;2.70;99.90;;;;;;5063745;28;20241;-73
2021/04/14 03:47:01;;;;;;;8.87;1.97;;;2.50;99.90;;;;;;5064281;28;20208;-73
2021/04/14 03:49:27;;;;;;;8.70;2.30;;;2.60;99.90;;;;;;5066244;28;20212;-73
2021/04/14 03:51:54;;;;;;;3.47;2.10;;;2.50;99.90;;;;;;5068255;28;20792;-73
2021/04/14 03:54:20;;;;;;;7.57;2.20;;;2.60;99.90;;;;;;5068461;28;20214;-73
2021/04/14 03:56:47;;;;;;;5.30;2.27;;;2.50;99.90;;;;;;5067949;28;20865;-73
2021/04/14 03:59:13;;;;;;;5.80;1.70;;;2.50;99.90;;;;;;5067069;28;20230;-74
2021/04/14 04:01:39;;;;;;;6.00;2.03;;;2.50;99.90;;;;;;5072608;28;20698;-74
2021/04/14 04:04:06;;;;;;;9.60;2.90;;;2.40;99.90;;;;;;5077468;28;20199;-74
2021/04/14 04:06:32;;;;;;;6.73;2.40;;;2.50;99.90;;;;;;5080942;28;20199;-73
2021/04/14 04:08:58;;;;;;;5.97;1.87;;;2.40;99.90;;;;;;5079118;28;20195;-73
2021/04/14 04:11:25;;;;;;;5.47;2.10;;;2.50;99.90;;;;;;5080982;28;20195;-74
2021/04/14 04:13:53;;;;;;;9.53;2.47;;;2.50;99.90;;;;;;5079965;28;20222;-73
2021/04/14 04:16:21;;;;;;;8.53;2.33;;;2.40;99.90;;;;;;5075955;28;20661;-74
2021/04/14 04:18:47;;;;;;;5.97;2.30;;;2.40;99.90;;;;;;5078113;28;20418;-73
2021/04/14 04:21:13;;;;;;;3.60;1.83;;;2.30;99.90;;;;;;5079260;28;20669;-73
2021/04/14 04:23:39;;;;;;;5.40;2.00;;;2.30;99.90;;;;;;5081594;28;20203;-73
2021/04/14 04:26:06;;;;;;;7.70;2.50;;;2.30;99.90;;;;;;5075564;28;20203;-74
2021/04/14 04:28:33;;;;;;;9.63;3.67;;;2.30;99.90;;;;;;5077628;28;20203;-73
2021/04/14 04:31:00;;;;;;;10.43;2.63;;;2.20;99.90;;;;;;5080079;28;20269;-74
2021/04/14 04:33:26;;;;;;;7.70;2.13;;;2.00;99.90;;;;;;5078730;28;20253;-73
2021/04/14 04:35:52;;;;;;;6.10;2.23;;;2.10;99.90;;;;;;5078546;28;20510;-74
2021/04/14 04:38:19;;;;;;;7.23;2.47;;;2.10;99.90;;;;;;5078618;28;20657;-74
2021/04/14 04:40:45;;;;;;;6.77;2.40;;;2.00;99.90;;;;;;5077645;28;20200;-74
2021/04/14 04:43:12;;;;;;;6.70;2.43;;;2.00;99.90;;;;;;5079260;28;20203;-74
2021/04/14 04:45:38;;;;;;;12.63;2.70;;;2.10;99.90;;;;;;5079749;28;20202;-73
2021/04/14 04:48:06;;;;;;;15.77;2.77;;;2.10;99.90;;;;;;5077990;28;20561;-74
2021/04/14 04:50:36;;;;;;;11.43;2.90;;;2.20;99.90;;;;;;5074679;28;20206;-74
2021/04/14 04:53:05;;;;;;;10.63;2.50;;;2.30;99.90;;;;;;5080751;28;20195;-74
2021/04/14 04:55:31;;;;;;;8.13;2.87;;;2.30;99.90;;;;;;5079946;28;20565;-74
2021/04/14 04:57:57;;;;;;;7.70;2.40;;;2.40;99.90;;;;;;5077972;28;20548;-73
2021/04/14 05:00:24;;;;;;;6.23;2.37;;;2.30;99.90;;;;;;5079689;28;20238;-73
2021/04/14 05:02:50;;;;;;;6.13;2.30;;;2.30;99.90;;;;;;5080233;28;20234;-73
2021/04/14 05:05:20;;;;;;;6.30;2.50;;;2.30;99.90;;;;;;5080103;28;20230;-73
2021/04/14 05:07:46;;;;;;;7.30;2.83;;;2.30;99.90;;;;;;5081343;28;20206;-74
2021/04/14 05:10:14;;;;;;;5.90;2.90;;;2.50;99.90;;;;;;5079884;28;20305;-73
2021/04/14 05:12:40;;;;;;;7.67;2.70;;;2.50;99.90;;;;;;5080543;28;20200;-73
2021/04/14 05:15:08;;;;;;;8.37;2.77;;;2.50;99.90;;;;;;5080614;28;20242;-74
2021/04/14 05:17:34;;;;;;;6.37;2.47;;;2.60;99.90;;;;;;5078011;28;20246;-74
2021/04/14 05:20:00;;;;;;;6.97;3.17;;;2.70;99.90;;;;;;5079146;28;20238;-74
2021/04/14 05:22:29;;;;;;;10.10;3.00;;;2.70;99.90;;;;;;5081673;28;20191;-74
2021/04/14 05:24:56;;;;;;;8.97;2.90;;;2.70;99.90;;;;;;5078717;28;20474;-73
2021/04/14 05:27:22;;;;;;;7.27;2.60;;;2.60;99.90;;;;;;5079153;28;20203;-74
2021/04/14 05:29:49;;;;;;;8.47;2.57;;;2.70;99.90;;;;;;5074629;28;20549;-74
2021/04/14 05:32:16;;;;;;;11.30;2.90;;;2.80;99.90;;;;;;5076019;28;20199;-74
2021/04/14 05:34:43;;;;;;;7.30;2.87;;;2.80;99.90;;;;;;5076178;28;20207;-79
2021/04/14 05:37:09;;;;;;;8.03;3.43;;;3.00;99.90;;;;;;5069427;28;20573;-74
2021/04/14 05:39:36;;;;;;;6.73;2.50;;;3.00;99.90;;;;;;5070069;28;20231;-74
2021/04/14 05:42:03;;;;;;;5.83;2.90;;;3.00;99.90;;;;;;5069666;28;20203;-74
2021/04/14 05:44:29;;;;;;;10.90;2.93;;;3.20;99.90;;;;;;5072892;28;20281;-74
2021/04/14 05:46:55;;;;;;;7.67;2.80;;;3.20;99.90;;;;;;5078563;28;20203;-73
2021/04/14 05:49:21;;;;;;;6.13;2.43;;;3.10;99.90;;;;;;5082236;28;20195;-74
2021/04/14 05:51:47;;;;;;;8.70;3.13;;;3.10;99.90;;;;;;5078283;28;21593;-73
2021/04/14 05:54:13;;;;;;;8.13;2.57;;;3.20;99.90;;;;;;5077607;28;20196;-74
2021/04/14 05:56:40;;;;;;;7.20;3.07;;;3.20;99.90;;;;;;5089584;28;20203;-74
2021/04/14 05:59:06;;;;;;;7.53;2.60;;;3.20;99.90;;;;;;5086640;28;20238;-74
2021/04/14 06:01:34;;;;;;;9.90;3.10;;;3.30;99.90;;;;;;5074743;28;20211;-74
2021/04/14 06:04:01;;;;;;;10.40;2.77;;;3.40;99.90;;;;;;5068223;28;20204;-73
2021/04/14 06:06:27;;;;;;;8.03;2.67;;;3.30;99.90;;;;;;5068938;28;20207;-73
2021/04/14 06:08:53;;;;;;;7.67;2.63;;;3.30;99.90;;;;;;5073323;28;20252;-74
2021/04/14 06:11:19;;;;;;;13.30;3.13;;;3.40;99.90;;;;;;5079899;28;20227;-74
2021/04/14 06:13:47;;;;;;;8.40;2.63;;;3.40;99.90;;;;;;5077398;28;20225;-74
2021/04/14 06:16:15;;;;;;;7.00;2.43;;;3.50;99.90;;;;;;5076550;28;20231;-74
2021/04/14 06:18:41;;;;;;;6.97;2.50;;;3.50;99.90;;;;;;5077637;28;20282;-73
2021/04/14 06:21:08;;;;;;;5.13;2.27;;;3.60;99.90;;;;;;5079163;28;20248;-73
2021/04/14 06:23:34;;;;;;;5.93;2.67;;;3.60;99.90;;;;;;5077080;28;20196;-74
2021/04/14 06:26:13;;;;;;;5.57;2.40;;;3.70;99.90;;;;;;5079923;28;20263;-73
2021/04/14 06:28:40;;;;;;;12.97;2.87;;;3.70;99.90;;;;;;5089188;28;20207;-73
2021/04/14 06:31:12;;;;;;;6.07;2.60;;;3.80;99.90;;;;;;5089279;28;20211;-73
2021/04/14 06:33:40;;;;;;;11.70;3.10;;;4.00;99.90;;;;;;5089166;28;20203;-74
2021/04/14 06:36:08;;;;;;;7.33;2.73;;;4.10;99.90;;;;;;5085844;28;20204;-73
2021/04/14 06:38:39;;;;;;;8.77;2.80;;;4.20;99.90;;;;;;5082980;28;20213;-74
2021/04/14 06:44:08;;;;;;;8.20;2.60;;;4.30;99.90;;;;;;5068495;28;20618;-74
2021/04/14 06:46:38;;;;;;;5.67;2.60;;;4.20;99.90;;;;;;5068465;28;20199;-74
2021/04/14 06:49:11;;;;;;;9.30;3.10;;;4.30;99.90;;;;;;5068306;28;20207;-74
2021/04/14 06:51:43;;;;;;;9.60;3.20;;;4.40;99.90;;;;;;5068422;28;20192;-74
2021/04/14 06:54:20;;;;;;;7.50;2.70;;;4.20;99.90;;;;;;5068798;28;20565;-74
2021/04/14 06:56:51;;;;;;;10.13;2.83;;;4.30;99.90;;;;;;5068496;28;20235;-74
2021/04/14 06:59:20;;;;;;;7.03;2.80;;;4.20;99.90;;;;;;5068580;28;20220;-74
2021/04/14 07:01:49;;;;;;;7.10;2.80;;;4.30;99.90;;;;;;5068283;28;20233;-73
2021/04/14 07:04:21;;;;;;;9.07;3.00;;;4.30;99.90;;;;;;5067996;28;20203;-73
2021/04/14 07:06:48;;;;;;;10.67;3.03;;;4.40;99.90;;;;;;5068465;28;20561;-73
2021/04/14 07:09:22;;;;;;;8.50;2.90;;;4.50;99.90;;;;;;5067970;28;20211;-74
2021/04/14 07:11:49;;;;;;;7.17;3.23;;;4.40;99.90;;;;;;5070902;28;20198;-74
2021/04/14 07:14:17;;;;;;;7.00;3.00;;;4.40;99.90;;;;;;5087861;28;20231;-78
2021/04/14 07:17:01;;;;;;;8.80;2.60;;;4.40;99.90;;;;;;5075699;28;20223;-71
2021/04/14 07:19:37;;;;;;;12.83;3.47;;;4.50;99.90;;;;;;5077145;28;20610;-74
2021/04/14 07:22:12;;;;;;;7.67;2.93;;;4.60;99.90;;;;;;5077982;28;20203;-74
2021/04/14 07:24:45;;;;;;;7.63;2.80;;;4.60;99.90;;;;;;5076373;28;20192;-74
2021/04/14 07:27:21;;;;;;;8.50;2.80;;;4.70;99.90;;;;;;5076153;28;20211;-74
2021/04/14 07:32:43;;;;;;;9.13;2.67;;;4.90;99.90;;;;;;5074243;28;20218;-74
2021/04/14 07:35:15;;;;;;;9.20;3.07;;;5.10;99.90;;;;;;5075572;28;20800;-74
2021/04/14 07:37:55;;;;;;;6.40;2.50;;;5.30;99.90;;;;;;5076801;28;20198;-74
2021/04/14 07:40:26;;;;;;;7.73;2.83;;;5.30;99.90;;;;;;5067181;28;20309;-74
2021/04/14 07:43:01;;;;;;;9.00;2.83;;;5.20;99.90;;;;;;5067284;28;20187;-74
2021/04/14 07:45:31;;;;;;;5.13;2.50;;;5.30;99.90;;;;;;5067051;28;20202;-74
2021/04/14 07:48:04;;;;;;;7.47;2.73;;;5.40;99.90;;;;;;5066882;28;20215;-74
2021/04/14 07:50:35;;;;;;;7.43;2.53;;;5.60;99.90;;;;;;5075067;28;20195;-74
2021/04/14 07:53:01;;;;;;;7.03;2.70;;;5.70;99.90;;;;;;5066657;28;20188;-74
2021/04/14 07:55:30;;;;;;;6.63;2.33;;;5.90;99.90;;;;;;5067029;28;20262;-74
2021/04/14 07:58:07;;;;;;;9.20;2.70;;;6.00;99.90;;;;;;5066591;28;20692;-74
2021/04/14 08:00:37;;;;;;;9.43;2.93;;;6.10;99.90;;;;;;5066677;28;20306;-74
2021/04/14 08:03:14;;;;;;;10.07;2.77;;;6.30;99.90;;;;;;5066813;28;20597;-74
2021/04/14 08:05:41;;;;;;;10.80;3.00;;;6.50;99.90;;;;;;5074872;28;20191;-74
2021/04/14 08:08:16;;;;;;;6.43;2.60;;;6.60;99.90;;;;;;5067058;28;20200;-71
2021/04/14 08:10:55;;;;;;;11.03;2.87;;;6.40;99.90;;;;;;5076304;28;20199;-71
2021/04/14 08:13:25;;;;;;;7.13;2.83;;;6.30;99.90;;;;;;5075391;28;20219;-74
2021/04/14 08:15:51;;;;;;;6.10;2.70;;;6.40;99.90;;;;;;5068290;28;20228;-74
2021/04/14 08:18:25;;;;;;;5.93;2.77;;;6.30;99.90;;;;;;5069535;28;20824;-74
2021/04/14 08:21:06;;;;;;;9.90;2.50;;;6.40;99.90;;;;;;5077740;28;20215;-74
2021/04/14 08:23:32;;;;;;;10.17;2.73;;;6.60;99.90;;;;;;5069969;28;20200;-74
2021/04/14 08:26:00;;;;;;;6.00;2.60;;;6.60;99.90;;;;;;5080408;28;20204;-74
2021/04/14 08:28:28;;;;;;;9.23;2.70;;;6.40;99.90;;;;;;5082359;28;20284;-74
2021/04/14 08:31:05;;;;;;;5.43;2.17;;;6.40;99.90;;;;;;5080818;28;20199;-74
2021/04/14 08:33:32;;;;;;;7.80;2.40;;;6.60;99.90;;;;;;5072442;28;20194;-74
2021/04/14 08:36:11;;;;;;;10.80;2.93;;;6.60;99.90;;;;;;5071676;28;20195;-73
2021/04/14 08:38:38;;;;;;;5.97;2.43;;;6.80;99.90;;;;;;5073311;28;20190;-73
2021/04/14 08:41:05;;;;;;;8.77;2.90;;;6.80;99.90;;;;;;5083703;28;20231;-74
2021/04/14 08:43:38;;;;;;;9.77;2.40;;;6.80;99.90;;;;;;5077993;28;20273;-74
2021/04/14 08:46:13;;;;;;;5.33;2.23;;;6.80;99.90;;;;;;5078312;28;20187;-74
2021/04/14 08:48:44;;;;;;;7.53;2.57;;;6.80;99.90;;;;;;5076021;28;20207;-74
2021/04/14 08:51:13;;;;;;;6.17;2.30;;;6.90;99.90;;;;;;5078710;28;20249;-73
2021/04/14 08:53:42;;;;;;;5.33;2.00;;;7.10;99.90;;;;;;5076510;28;20254;-74
2021/04/14 08:56:08;;;;;;;5.83;2.43;;;7.30;99.90;;;;;;5078591;28;20257;-73
2021/04/14 08:58:35;;;;;;;5.53;1.87;;;7.10;99.90;;;;;;5075789;28;20593;-73
2021/04/14 09:01:01;;;;;;;8.67;2.23;;;7.10;99.90;;;;;;5077175;28;20219;-73
2021/04/14 09:03:36;;;;;;;4.50;2.00;;;7.20;99.90;;;;;;5077471;28;20696;-74
2021/04/14 09:06:06;;;;;;;4.90;1.90;;;7.20;99.90;;;;;;5088636;28;20397;-74
2021/04/14 09:08:34;;;;;;;3.33;2.20;;;7.30;99.90;;;;;;5090332;28;20660;-73
2021/04/14 09:11:01;;;;;;;8.20;2.17;;;7.60;99.90;;;;;;5090741;28;20238;-74
2021/04/14 09:13:34;;;;;;;3.50;1.70;;;7.70;99.90;;;;;;5090662;28;20226;-74
2021/04/14 09:16:02;;;;;;;5.80;1.70;;;7.80;99.90;;;;;;5090331;28;20243;-74
2021/04/14 09:18:32;;;;;;;5.47;1.80;;;8.00;99.90;;;;;;5090417;28;20680;-74
2021/04/14 09:21:12;;;;;;;3.10;1.80;;;8.20;99.90;;;;;;5090779;28;20325;-74
2021/04/14 09:23:45;;;;;;;4.70;1.50;;;8.20;99.90;;;;;;5090269;28;20210;-74
2021/04/14 09:26:22;;;;;;;4.13;1.70;;;8.00;99.90;;;;;;5089832;28;20400;-73
2021/04/14 09:28:51;;;;;;;6.47;2.00;;;7.70;99.90;;;;;;5090015;28;20251;-73
2021/04/14 09:31:39;;;;;;;6.50;2.03;;;7.70;99.90;;;;;;5090014;28;20211;-73
2021/04/14 09:34:09;;;;;;;4.37;1.80;;;7.70;99.90;;;;;;5089820;28;20274;-73
2021/04/14 09:36:44;;;;;;;8.03;2.20;;;7.60;99.90;;;;;;5089610;28;20562;-73
2021/04/14 09:39:27;;;;;;;7.43;2.13;;;7.60;99.90;;;;;;5090199;28;20245;-74
2021/04/14 09:41:53;;;;;;;6.20;2.00;;;7.80;99.90;;;;;;5090116;28;20201;-74
2021/04/14 09:44:39;;;;;;;2.93;1.40;;;8.00;99.90;;;;;;5086854;28;20207;-75
2021/04/14 09:47:17;;;;;;;4.07;1.63;;;8.30;99.90;;;;;;5079333;28;20603;-75
2021/04/14 09:49:45;;;;;;;8.90;1.83;;;8.50;99.90;;;;;;5079080;28;20191;-75
2021/04/14 09:52:26;;;;;;;7.50;2.00;;;8.60;99.90;;;;;;5077206;28;20195;-75
2021/04/14 09:54:56;;;;;;;4.27;1.80;;;8.80;99.90;;;;;;5076693;28;20563;-74
2021/04/14 09:57:27;;;;;;;3.47;1.93;;;8.90;99.90;;;;;;5078639;28;20241;-75
2021/04/14 09:59:53;;;;;;;3.73;1.80;;;8.60;99.90;;;;;;5077483;28;20261;-75
2021/04/14 10:02:22;;;;;;;3.57;1.10;;;8.50;99.90;;;;;;5079841;28;20211;-75
2021/04/14 10:04:49;;;;;;;2.97;1.47;;;8.60;99.90;;;;;;5079085;28;20195;-75
2021/04/14 10:07:18;;;;;;;4.90;1.03;;;8.80;99.90;;;;;;5076397;28;20242;-75
2021/04/14 10:09:45;;;;;;;5.00;1.50;;;8.80;99.90;;;;;;5077011;28;20199;-75
2021/04/14 10:12:14;;;;;;;3.30;1.10;;;8.60;98.70;;;;;;5076875;28;20196;-75
2021/04/14 10:14:43;;;;;;;2.33;1.23;;;8.50;97.30;;;;;;5077583;28;20262;-75
2021/04/14 10:17:10;;;;;;;1.53;1.20;;;8.40;95.90;;;;;;5079187;28;20202;-75
2021/04/14 10:19:38;;;;;;;2.77;1.30;;;8.30;96.60;;;;;;5077476;28;20227;-75
2021/04/14 10:22:15;;;;;;;3.10;1.30;;;8.20;97.60;;;;;;5076952;28;20202;-76
2021/04/14 10:24:42;;;;;;;2.03;1.30;;;8.30;98.40;;;;;;5080383;28;20190;-74
2021/04/14 10:27:10;;;;;;;3.23;1.37;;;8.50;99.00;;;;;;5077971;28;20214;-72
2021/04/14 10:29:41;;;;;;;3.33;1.53;;;8.60;99.90;;;;;;5072338;28;20737;-75
2021/04/14 10:32:15;;;;;;;2.37;1.20;;;8.70;99.90;;;;;;5076060;28;20196;-75
2021/04/14 10:34:41;;;;;;;5.40;1.70;;;8.60;99.50;;;;;;5077345;28;20190;-74
2021/04/14 10:37:17;;;;;;;4.73;1.70;;;8.60;99.00;;;;;;5078484;28;20210;-74
2021/04/14 10:39:43;;;;;;;4.13;1.40;;;8.60;98.90;;;;;;5078396;28;20215;-74
2021/04/14 10:42:18;;;;;;;3.10;1.67;;;8.60;99.30;;;;;;5085899;28;20202;-74
2021/04/14 10:44:45;;;;;;;5.37;1.60;;;8.60;98.90;;;;;;5079509;28;20198;-75
2021/04/14 10:47:18;;;;;;;3.00;1.40;;;8.50;97.90;;;;;;5076716;28;20231;-75
2021/04/14 10:49:45;;;;;;;3.60;1.60;;;8.40;97.80;;;;;;5079252;28;20673;-75
2021/04/14 10:52:18;;;;;;;6.57;1.67;;;8.30;97.80;;;;;;5076227;28;20248;-74
2021/04/14 10:54:48;;;;;;;4.43;1.40;;;8.50;98.60;;;;;;5078661;28;20577;-75
2021/04/14 10:57:21;;;;;;;4.43;1.83;;;9.00;99.00;;;;;;5078559;28;20202;-75
2021/04/14 10:59:48;;;;;;;2.40;1.50;;;9.30;97.80;;;;;;5077859;28;20215;-74
2021/04/14 11:02:21;;;;;;;3.60;1.50;;;9.40;97.10;;;;;;5075378;28;20685;-76
2021/04/14 11:04:48;;;;;;;3.50;1.20;;;9.40;96.60;;;;;;5076641;28;20274;-74
2021/04/14 11:07:17;;;;;;;3.20;1.90;;;9.40;97.10;;;;;;5076327;28;20213;-75
2021/04/14 11:09:44;;;;;;;4.03;1.40;;;9.30;97.30;;;;;;5088713;28;20210;-75
2021/04/14 11:12:14;;;;;;;4.20;1.40;;;9.20;96.50;;;;;;5088231;28;20284;-75
2021/04/14 11:14:44;;;;;;;3.50;1.10;;;9.20;96.50;;;;;;5088117;28;20254;-75
2021/04/14 11:17:17;;;;;;;2.93;1.20;;;9.10;96.30;;;;;;5087999;28;20207;-75
2021/04/14 11:19:57;;;;;;;2.57;1.57;;;9.10;96.90;;;;;;5088235;28;20272;-75
2021/04/14 11:22:23;;;;;;;3.33;1.60;;;9.20;97.40;;;;;;5088071;28;20665;-74
2021/04/14 11:24:51;;;;;;;2.00;1.13;;;9.20;97.20;;;;;;5087985;28;20698;-75
2021/04/14 11:27:21;;;;;;;2.47;1.40;;;9.20;96.30;;;;;;5088191;28;20214;-74
2021/04/14 11:29:48;;;;;;;3.33;1.30;;;9.20;96.30;;;;;;5088102;28;21211;-74
2021/04/14 11:32:18;;;;;;;2.80;1.17;;;9.00;96.10;;;;;;5081400;28;20600;-75
2021/04/14 11:34:55;;;;;;;4.60;1.20;;;9.00;96.80;;;;;;5088160;28;20209;-75
2021/04/14 11:37:30;;;;;;;3.17;1.23;;;9.00;97.30;;;;;;5087864;28;20634;-75
2021/04/14 11:39:59;;;;;;;3.20;1.20;;;8.90;97.60;;;;;;5088277;28;20238;-75
2021/04/14 11:42:28;;;;;;;3.63;1.13;;;8.90;97.90;;;;;;5088097;28;20203;-76
2021/04/14 11:44:58;;;;;;;4.37;1.43;;;8.90;97.50;;;;;;5087987;28;20936;-75
2021/04/14 11:47:29;;;;;;;4.90;1.43;;;8.90;97.90;;;;;;5070701;28;20215;-75
2021/04/14 11:49:57;;;;;;;2.87;1.47;;;9.00;98.00;;;;;;5067874;28;20826;-74
2021/04/14 11:52:31;;;;;;;3.43;1.30;;;9.10;98.10;;;;;;5070704;28;20199;-74
2021/04/14 11:55:08;;;;;;;4.97;1.37;;;9.30;98.40;;;;;;5084307;28;20283;-75
2021/04/14 11:57:40;;;;;;;2.47;1.20;;;9.40;97.80;;;;;;5088079;28;20243;-75
2021/04/14 12:00:30;;;;;;;2.20;1.10;;;9.60;97.20;;;;;;5088093;28;20272;-74
2021/04/14 12:02:59;;;;;;;4.23;1.60;;;10.00;98.20;;;;;;5087389;28;20195;-75
2021/04/14 12:05:25;;;;;;;3.03;1.40;;;10.20;95.80;;;;;;5087461;28;20206;-75
2021/04/14 12:07:51;;;;;;;3.30;1.30;;;10.50;95.80;;;;;;5088137;28;20206;-75
2021/04/14 12:10:18;;;;;;;3.00;1.30;;;10.90;95.50;;;;;;5089530;28;20207;-75
2021/04/14 12:12:44;;;;;;;2.77;1.57;;;11.10;93.50;;;;;;5088236;28;20202;-76
2021/04/14 12:15:12;;;;;;;3.07;1.10;;;11.00;93.00;;;;;;5088400;28;20226;-77
2021/04/14 12:17:39;;;;;;;4.27;1.33;;;11.00;91.60;;;;;;5091013;28;20224;-75
2021/04/14 12:20:06;;;;;;;3.03;1.30;;;10.80;91.60;;;;;;5087155;28;20680;-74
2021/04/14 12:22:32;;;;;;;2.20;1.30;;;10.60;92.20;;;;;;5080376;28;20235;-73
2021/04/14 12:24:59;;;;;;;6.20;1.80;;;10.50;93.20;;;;;;5081511;28;20248;-75
2021/04/14 12:27:26;;;;;;;3.03;1.10;;;10.30;94.20;;;;;;5081278;28;20198;-74
2021/04/14 12:29:52;;;;;;;4.20;1.53;;;10.00;94.00;;;;;;5082282;28;20207;-75
2021/04/14 12:32:19;;;;;;;3.90;1.67;;;9.80;94.30;;;;;;5076164;28;20214;-74
2021/04/14 12:34:47;;;;;;;7.27;1.33;;;9.60;95.10;;;;;;5086553;28;20203;-75
2021/04/14 12:37:13;;;;;;;3.13;1.07;;;9.60;95.20;;;;;;5085433;28;20222;-75
2021/04/14 12:39:40;;;;;;;4.97;1.20;;;9.30;95.00;;;;;;5090967;28;20223;-75
2021/04/14 12:42:06;;;;;;;5.47;1.30;;;9.20;94.90;;;;;;5090721;28;20198;-75
2021/04/14 12:44:33;;;;;;;3.63;1.23;;;9.00;94.80;;;;;;5091065;28;20203;-76
2021/04/14 12:46:59;;;;;;;3.53;1.20;;;9.00;95.40;;;;;;5090906;28;20214;-75
2021/04/14 12:49:25;;;;;;;2.70;1.40;;;9.20;95.80;;;;;;5090954;28;20202;-75
2021/04/14 12:51:55;;;;;;;3.20;1.27;;;9.30;96.00;;;;;;5090927;28;20210;-75
2021/04/14 12:54:27;;;;;;;3.83;1.30;;;9.40;94.90;;;;;;5090537;28;20661;-76
2021/04/14 12:56:56;;;;;;;2.83;1.60;;;9.50;94.60;;;;;;5090640;28;20246;-74
2021/04/14 12:59:25;;;;;;;1.90;1.33;;;9.70;94.10;;;;;;5090930;28;20302;-75
2021/04/14 13:01:55;;;;;;;2.13;1.20;;;9.80;92.90;;;;;;5090677;28;20202;-75
2021/04/14 13:04:29;;;;;;;2.90;1.30;;;9.80;92.30;;;;;;5090359;28;20228;-75
2021/04/14 13:07:03;;;;;;;2.70;1.23;;;9.90;93.00;;;;;;5090434;28;20286;-75
2021/04/14 13:09:29;;;;;;;1.80;1.10;;;9.80;92.30;;;;;;5090301;28;20191;-74